sensor_id;sensor_type;location;lat;lon;timestamp;temperature;humidity
420;DHT22;42600;54.408;13.016;2023-04-19T00:00:56;6.60;92.10
420;DHT22;42600;54.408;13.016;2023-04-19T00:03:23;6.60;92.40
420;DHT22;42600;54.408;13.016;2023-04-19T00:05:51;6.60;92.70
420;DHT22;42600;54.408;13.016;2023-04-19T00:08:19;6.70;92.50
420;DHT22;42600;54.408;13.016;2023-04-19T00:10:45;6.70;92.10
420;DHT22;42600;54.408;13.016;2023-04-19T00:13:12;6.80;91.60
420;DHT22;42600;54.408;13.016;2023-04-19T00:15:39;6.80;90.80
420;DHT22;42600;54.408;13.016;2023-04-19T00:18:05;6.80;90.50
420;DHT22;42600;54.408;13.016;2023-04-19T00:20:32;6.80;90.80
420;DHT22;42600;54.408;13.016;2023-04-19T00:23:00;6.80;91.10
420;DHT22;42600;54.408;13.016;2023-04-19T00:25:26;6.80;91.60
420;DHT22;42600;54.408;13.016;2023-04-19T00:27:55;6.80;92.00
420;DHT22;42600;54.408;13.016;2023-04-19T00:30:21;6.80;91.60
420;DHT22;42600;54.408;13.016;2023-04-19T00:32:48;6.70;90.50
420;DHT22;42600;54.408;13.016;2023-04-19T00:35:15;6.70;89.90
420;DHT22;42600;54.408;13.016;2023-04-19T00:37:41;6.60;90.10
420;DHT22;42600;54.408;13.016;2023-04-19T00:40:10;6.60;89.90
420;DHT22;42600;54.408;13.016;2023-04-19T00:42:36;6.50;89.70
420;DHT22;42600;54.408;13.016;2023-04-19T00:45:04;6.50;89.70
420;DHT22;42600;54.408;13.016;2023-04-19T00:47:30;6.50;89.70
420;DHT22;42600;54.408;13.016;2023-04-19T00:49:57;6.50;89.70
420;DHT22;42600;54.408;13.016;2023-04-19T00:52:24;6.50;89.80
420;DHT22;42600;54.408;13.016;2023-04-19T00:54:52;6.50;89.80
420;DHT22;42600;54.408;13.016;2023-04-19T00:57:20;6.50;89.50
420;DHT22;42600;54.408;13.016;2023-04-19T00:59:47;6.50;89.20
420;DHT22;42600;54.408;13.016;2023-04-19T01:02:14;6.50;89.20
420;DHT22;42600;54.408;13.016;2023-04-19T01:04:40;6.50;89.20
420;DHT22;42600;54.408;13.016;2023-04-19T01:07:07;6.50;89.20
420;DHT22;42600;54.408;13.016;2023-04-19T01:09:34;6.50;89.30
420;DHT22;42600;54.408;13.016;2023-04-19T01:12:01;6.50;89.30
420;DHT22;42600;54.408;13.016;2023-04-19T01:14:29;6.40;89.20
420;DHT22;42600;54.408;13.016;2023-04-19T01:16:56;6.50;89.30
420;DHT22;42600;54.408;13.016;2023-04-19T01:19:23;6.50;89.10
420;DHT22;42600;54.408;13.016;2023-04-19T01:21:49;6.40;89.00
420;DHT22;42600;54.408;13.016;2023-04-19T01:24:18;6.50;88.80
420;DHT22;42600;54.408;13.016;2023-04-19T01:26:44;6.40;88.70
420;DHT22;42600;54.408;13.016;2023-04-19T01:29:11;6.40;88.20
420;DHT22;42600;54.408;13.016;2023-04-19T01:31:38;6.40;88.10
420;DHT22;42600;54.408;13.016;2023-04-19T01:34:04;6.40;88.20
420;DHT22;42600;54.408;13.016;2023-04-19T01:36:31;6.40;87.90
420;DHT22;42600;54.408;13.016;2023-04-19T01:38:57;6.40;87.80
420;DHT22;42600;54.408;13.016;2023-04-19T01:41:25;6.40;88.10
420;DHT22;42600;54.408;13.016;2023-04-19T01:43:54;6.40;87.90
420;DHT22;42600;54.408;13.016;2023-04-19T01:46:20;6.40;87.80
420;DHT22;42600;54.408;13.016;2023-04-19T01:48:47;6.40;87.90
420;DHT22;42600;54.408;13.016;2023-04-19T01:51:13;6.30;88.00
420;DHT22;42600;54.408;13.016;2023-04-19T01:53:41;6.30;87.70
420;DHT22;42600;54.408;13.016;2023-04-19T01:56:08;6.30;87.40
420;DHT22;42600;54.408;13.016;2023-04-19T01:58:36;6.30;86.70
420;DHT22;42600;54.408;13.016;2023-04-19T02:01:02;6.30;85.70
420;DHT22;42600;54.408;13.016;2023-04-19T02:03:29;6.30;85.50
420;DHT22;42600;54.408;13.016;2023-04-19T02:05:55;6.30;84.90
420;DHT22;42600;54.408;13.016;2023-04-19T02:08:22;6.30;84.50
420;DHT22;42600;54.408;13.016;2023-04-19T02:10:49;6.20;84.40
420;DHT22;42600;54.408;13.016;2023-04-19T02:13:15;6.20;85.00
420;DHT22;42600;54.408;13.016;2023-04-19T02:15:43;6.20;85.80
420;DHT22;42600;54.408;13.016;2023-04-19T02:18:10;6.20;86.00
420;DHT22;42600;54.408;13.016;2023-04-19T02:20:37;6.20;86.70
420;DHT22;42600;54.408;13.016;2023-04-19T02:23:04;6.20;86.70
420;DHT22;42600;54.408;13.016;2023-04-19T02:25:30;6.20;87.10
420;DHT22;42600;54.408;13.016;2023-04-19T02:27:57;6.20;87.00
420;DHT22;42600;54.408;13.016;2023-04-19T02:30:24;6.10;87.30
420;DHT22;42600;54.408;13.016;2023-04-19T02:32:51;6.10;87.40
420;DHT22;42600;54.408;13.016;2023-04-19T02:35:19;6.10;87.30
420;DHT22;42600;54.408;13.016;2023-04-19T02:37:45;6.10;87.10
420;DHT22;42600;54.408;13.016;2023-04-19T02:40:12;6.10;86.40
420;DHT22;42600;54.408;13.016;2023-04-19T02:42:39;6.10;86.10
420;DHT22;42600;54.408;13.016;2023-04-19T02:45:06;6.10;85.80
420;DHT22;42600;54.408;13.016;2023-04-19T02:47:33;6.10;85.70
420;DHT22;42600;54.408;13.016;2023-04-19T02:50:01;6.10;85.40
420;DHT22;42600;54.408;13.016;2023-04-19T02:52:28;6.10;85.60
420;DHT22;42600;54.408;13.016;2023-04-19T02:54:54;6.10;85.90
420;DHT22;42600;54.408;13.016;2023-04-19T02:57:21;6.10;85.90
420;DHT22;42600;54.408;13.016;2023-04-19T02:59:47;6.10;86.00
420;DHT22;42600;54.408;13.016;2023-04-19T03:02:14;6.10;86.20
420;DHT22;42600;54.408;13.016;2023-04-19T03:04:41;6.10;86.20
420;DHT22;42600;54.408;13.016;2023-04-19T03:07:09;6.20;86.30
420;DHT22;42600;54.408;13.016;2023-04-19T03:09:36;6.10;86.50
420;DHT22;42600;54.408;13.016;2023-04-19T03:12:03;6.10;86.80
420;DHT22;42600;54.408;13.016;2023-04-19T03:14:29;6.00;87.00
420;DHT22;42600;54.408;13.016;2023-04-19T03:16:58;6.00;87.40
420;DHT22;42600;54.408;13.016;2023-04-19T03:19:24;6.00;87.60
420;DHT22;42600;54.408;13.016;2023-04-19T03:21:51;6.00;87.60
420;DHT22;42600;54.408;13.016;2023-04-19T03:24:19;6.10;87.40
420;DHT22;42600;54.408;13.016;2023-04-19T03:26:52;6.00;87.80
420;DHT22;42600;54.408;13.016;2023-04-19T03:29:18;6.00;88.00
420;DHT22;42600;54.408;13.016;2023-04-19T03:31:45;6.00;88.20
420;DHT22;42600;54.408;13.016;2023-04-19T03:34:11;6.00;88.40
420;DHT22;42600;54.408;13.016;2023-04-19T03:36:38;5.90;88.60
420;DHT22;42600;54.408;13.016;2023-04-19T03:39:05;5.90;88.60
420;DHT22;42600;54.408;13.016;2023-04-19T03:41:33;5.90;88.60
420;DHT22;42600;54.408;13.016;2023-04-19T03:43:59;5.90;88.50
420;DHT22;42600;54.408;13.016;2023-04-19T03:46:26;5.90;88.70
420;DHT22;42600;54.408;13.016;2023-04-19T03:48:55;5.90;88.90
420;DHT22;42600;54.408;13.016;2023-04-19T03:51:22;5.90;88.80
420;DHT22;42600;54.408;13.016;2023-04-19T03:53:48;5.80;88.90
420;DHT22;42600;54.408;13.016;2023-04-19T03:56:15;5.80;89.10
420;DHT22;42600;54.408;13.016;2023-04-19T03:58:43;5.80;89.00
420;DHT22;42600;54.408;13.016;2023-04-19T04:01:17;5.80;88.90
420;DHT22;42600;54.408;13.016;2023-04-19T04:03:43;5.80;89.10
420;DHT22;42600;54.408;13.016;2023-04-19T04:06:10;5.80;89.10
420;DHT22;42600;54.408;13.016;2023-04-19T04:08:36;5.80;88.90
420;DHT22;42600;54.408;13.016;2023-04-19T04:11:03;5.80;88.70
420;DHT22;42600;54.408;13.016;2023-04-19T04:13:29;5.80;88.60
420;DHT22;42600;54.408;13.016;2023-04-19T04:15:57;5.90;88.50
420;DHT22;42600;54.408;13.016;2023-04-19T04:18:24;5.80;88.40
420;DHT22;42600;54.408;13.016;2023-04-19T04:20:51;5.80;88.50
420;DHT22;42600;54.408;13.016;2023-04-19T04:23:18;5.90;88.30
420;DHT22;42600;54.408;13.016;2023-04-19T04:25:46;5.90;88.20
420;DHT22;42600;54.408;13.016;2023-04-19T04:28:12;6.00;88.20
420;DHT22;42600;54.408;13.016;2023-04-19T04:30:40;6.10;87.70
420;DHT22;42600;54.408;13.016;2023-04-19T04:33:08;6.10;87.60
420;DHT22;42600;54.408;13.016;2023-04-19T04:35:36;6.20;87.90
420;DHT22;42600;54.408;13.016;2023-04-19T04:38:02;6.30;87.60
420;DHT22;42600;54.408;13.016;2023-04-19T04:40:30;6.30;87.50
420;DHT22;42600;54.408;13.016;2023-04-19T04:42:56;6.40;87.70
420;DHT22;42600;54.408;13.016;2023-04-19T04:45:25;6.40;87.80
420;DHT22;42600;54.408;13.016;2023-04-19T04:47:53;6.50;87.80
420;DHT22;42600;54.408;13.016;2023-04-19T04:50:21;6.60;87.40
420;DHT22;42600;54.408;13.016;2023-04-19T04:52:47;6.60;87.00
420;DHT22;42600;54.408;13.016;2023-04-19T04:55:14;6.70;86.60
420;DHT22;42600;54.408;13.016;2023-04-19T04:57:41;6.70;86.30
420;DHT22;42600;54.408;13.016;2023-04-19T05:00:08;6.80;86.20
420;DHT22;42600;54.408;13.016;2023-04-19T05:02:36;6.90;86.10
420;DHT22;42600;54.408;13.016;2023-04-19T05:05:04;6.90;85.60
420;DHT22;42600;54.408;13.016;2023-04-19T05:07:32;6.90;85.10
420;DHT22;42600;54.408;13.016;2023-04-19T05:09:58;7.00;84.70
420;DHT22;42600;54.408;13.016;2023-04-19T05:12:25;7.00;84.90
420;DHT22;42600;54.408;13.016;2023-04-19T05:14:51;7.10;84.80
420;DHT22;42600;54.408;13.016;2023-04-19T05:17:18;7.10;84.80
420;DHT22;42600;54.408;13.016;2023-04-19T05:19:44;7.20;84.50
420;DHT22;42600;54.408;13.016;2023-04-19T05:22:11;7.20;83.90
420;DHT22;42600;54.408;13.016;2023-04-19T05:24:39;7.30;84.20
420;DHT22;42600;54.408;13.016;2023-04-19T05:27:06;7.30;84.40
420;DHT22;42600;54.408;13.016;2023-04-19T05:29:33;7.30;83.50
420;DHT22;42600;54.408;13.016;2023-04-19T05:32:00;7.40;83.40
420;DHT22;42600;54.408;13.016;2023-04-19T05:34:26;7.40;83.80
420;DHT22;42600;54.408;13.016;2023-04-19T05:36:53;7.50;83.50
420;DHT22;42600;54.408;13.016;2023-04-19T05:39:20;7.50;83.50
420;DHT22;42600;54.408;13.016;2023-04-19T05:41:48;7.60;83.00
420;DHT22;42600;54.408;13.016;2023-04-19T05:44:14;7.60;82.90
420;DHT22;42600;54.408;13.016;2023-04-19T05:46:41;7.70;83.00
420;DHT22;42600;54.408;13.016;2023-04-19T05:49:07;7.70;82.80
420;DHT22;42600;54.408;13.016;2023-04-19T05:51:34;7.70;82.80
420;DHT22;42600;54.408;13.016;2023-04-19T05:54:00;7.80;82.60
420;DHT22;42600;54.408;13.016;2023-04-19T05:56:27;7.90;82.60
420;DHT22;42600;54.408;13.016;2023-04-19T05:58:55;7.90;82.40
420;DHT22;42600;54.408;13.016;2023-04-19T06:01:23;7.90;82.20
420;DHT22;42600;54.408;13.016;2023-04-19T06:03:49;7.80;82.20
420;DHT22;42600;54.408;13.016;2023-04-19T06:06:17;7.90;82.20
420;DHT22;42600;54.408;13.016;2023-04-19T06:08:44;7.90;82.30
420;DHT22;42600;54.408;13.016;2023-04-19T06:11:10;8.00;81.60
420;DHT22;42600;54.408;13.016;2023-04-19T06:13:37;8.00;81.20
420;DHT22;42600;54.408;13.016;2023-04-19T06:16:06;8.00;81.10
420;DHT22;42600;54.408;13.016;2023-04-19T06:18:33;8.00;81.30
420;DHT22;42600;54.408;13.016;2023-04-19T06:21:00;8.10;80.90
420;DHT22;42600;54.408;13.016;2023-04-19T06:23:26;8.00;81.20
420;DHT22;42600;54.408;13.016;2023-04-19T06:25:53;8.00;81.50
420;DHT22;42600;54.408;13.016;2023-04-19T06:28:19;8.00;81.80
420;DHT22;42600;54.408;13.016;2023-04-19T06:30:46;8.10;81.80
420;DHT22;42600;54.408;13.016;2023-04-19T06:33:14;8.20;81.80
420;DHT22;42600;54.408;13.016;2023-04-19T06:35:41;8.20;81.60
420;DHT22;42600;54.408;13.016;2023-04-19T06:38:07;8.20;82.00
420;DHT22;42600;54.408;13.016;2023-04-19T06:40:34;8.40;82.90
420;DHT22;42600;54.408;13.016;2023-04-19T06:43:01;8.40;82.80
420;DHT22;42600;54.408;13.016;2023-04-19T06:45:27;8.50;81.30
420;DHT22;42600;54.408;13.016;2023-04-19T06:47:54;8.50;81.30
420;DHT22;42600;54.408;13.016;2023-04-19T06:50:22;8.50;81.00
420;DHT22;42600;54.408;13.016;2023-04-19T06:52:48;8.40;79.50
420;DHT22;42600;54.408;13.016;2023-04-19T06:55:15;8.40;80.80
420;DHT22;42600;54.408;13.016;2023-04-19T06:57:42;8.50;81.40
420;DHT22;42600;54.408;13.016;2023-04-19T07:00:09;8.50;78.90
420;DHT22;42600;54.408;13.016;2023-04-19T07:02:36;8.60;80.40
420;DHT22;42600;54.408;13.016;2023-04-19T07:05:03;8.60;79.70
420;DHT22;42600;54.408;13.016;2023-04-19T07:07:31;8.60;79.70
420;DHT22;42600;54.408;13.016;2023-04-19T07:09:58;8.70;78.90
420;DHT22;42600;54.408;13.016;2023-04-19T07:12:24;8.60;78.80
420;DHT22;42600;54.408;13.016;2023-04-19T07:14:51;8.60;79.50
420;DHT22;42600;54.408;13.016;2023-04-19T07:17:20;8.60;78.80
420;DHT22;42600;54.408;13.016;2023-04-19T07:19:47;8.60;79.30
420;DHT22;42600;54.408;13.016;2023-04-19T07:22:14;8.50;78.80
420;DHT22;42600;54.408;13.016;2023-04-19T07:24:42;8.50;77.70
420;DHT22;42600;54.408;13.016;2023-04-19T07:27:09;8.50;78.10
420;DHT22;42600;54.408;13.016;2023-04-19T07:29:35;8.50;78.40
420;DHT22;42600;54.408;13.016;2023-04-19T07:32:02;8.50;78.10
420;DHT22;42600;54.408;13.016;2023-04-19T07:34:29;8.60;79.00
420;DHT22;42600;54.408;13.016;2023-04-19T07:36:55;8.60;77.80
420;DHT22;42600;54.408;13.016;2023-04-19T07:39:22;8.60;77.60
420;DHT22;42600;54.408;13.016;2023-04-19T07:41:50;8.60;76.30
420;DHT22;42600;54.408;13.016;2023-04-19T07:44:16;8.60;76.60
420;DHT22;42600;54.408;13.016;2023-04-19T07:46:43;8.70;78.80
420;DHT22;42600;54.408;13.016;2023-04-19T07:49:09;8.70;76.30
420;DHT22;42600;54.408;13.016;2023-04-19T07:51:36;8.60;77.20
420;DHT22;42600;54.408;13.016;2023-04-19T07:54:03;8.70;77.30
420;DHT22;42600;54.408;13.016;2023-04-19T07:56:29;8.70;77.90
420;DHT22;42600;54.408;13.016;2023-04-19T07:58:57;8.80;77.90
420;DHT22;42600;54.408;13.016;2023-04-19T08:01:24;8.90;78.40
420;DHT22;42600;54.408;13.016;2023-04-19T08:03:50;8.90;76.20
420;DHT22;42600;54.408;13.016;2023-04-19T08:06:17;8.90;75.40
420;DHT22;42600;54.408;13.016;2023-04-19T08:08:45;8.90;75.60
420;DHT22;42600;54.408;13.016;2023-04-19T08:11:12;8.80;75.40
420;DHT22;42600;54.408;13.016;2023-04-19T08:13:39;8.80;76.60
420;DHT22;42600;54.408;13.016;2023-04-19T08:16:07;8.80;77.40
420;DHT22;42600;54.408;13.016;2023-04-19T08:18:33;8.80;77.90
420;DHT22;42600;54.408;13.016;2023-04-19T08:21:00;8.70;77.00
420;DHT22;42600;54.408;13.016;2023-04-19T08:23:26;8.70;76.00
420;DHT22;42600;54.408;13.016;2023-04-19T08:25:53;8.70;77.00
420;DHT22;42600;54.408;13.016;2023-04-19T08:28:20;8.60;75.00
420;DHT22;42600;54.408;13.016;2023-04-19T08:30:46;8.60;75.70
420;DHT22;42600;54.408;13.016;2023-04-19T08:33:14;8.70;75.60
420;DHT22;42600;54.408;13.016;2023-04-19T08:35:41;8.70;74.80
420;DHT22;42600;54.408;13.016;2023-04-19T08:38:09;8.80;74.90
420;DHT22;42600;54.408;13.016;2023-04-19T08:40:39;8.90;74.40
420;DHT22;42600;54.408;13.016;2023-04-19T08:43:06;8.90;75.40
420;DHT22;42600;54.408;13.016;2023-04-19T08:45:33;9.00;74.20
420;DHT22;42600;54.408;13.016;2023-04-19T08:48:01;9.10;73.40
420;DHT22;42600;54.408;13.016;2023-04-19T08:50:29;9.10;72.80
420;DHT22;42600;54.408;13.016;2023-04-19T08:52:57;9.10;73.00
420;DHT22;42600;54.408;13.016;2023-04-19T08:55:24;9.10;74.00
420;DHT22;42600;54.408;13.016;2023-04-19T08:57:51;9.10;75.00
420;DHT22;42600;54.408;13.016;2023-04-19T09:00:18;9.00;72.60
420;DHT22;42600;54.408;13.016;2023-04-19T09:02:46;9.10;75.40
420;DHT22;42600;54.408;13.016;2023-04-19T09:05:14;9.10;74.80
420;DHT22;42600;54.408;13.016;2023-04-19T09:07:42;9.00;73.60
420;DHT22;42600;54.408;13.016;2023-04-19T09:10:10;8.90;72.20
420;DHT22;42600;54.408;13.016;2023-04-19T09:12:38;8.90;73.10
420;DHT22;42600;54.408;13.016;2023-04-19T09:15:06;8.90;74.20
420;DHT22;42600;54.408;13.016;2023-04-19T09:17:34;8.90;72.60
420;DHT22;42600;54.408;13.016;2023-04-19T09:20:01;8.80;73.20
420;DHT22;42600;54.408;13.016;2023-04-19T09:22:28;8.90;73.60
420;DHT22;42600;54.408;13.016;2023-04-19T09:24:57;8.90;73.10
420;DHT22;42600;54.408;13.016;2023-04-19T09:27:26;8.90;74.30
420;DHT22;42600;54.408;13.016;2023-04-19T09:29:53;8.90;75.20
420;DHT22;42600;54.408;13.016;2023-04-19T09:32:20;9.00;72.90
420;DHT22;42600;54.408;13.016;2023-04-19T09:34:51;9.10;74.40
420;DHT22;42600;54.408;13.016;2023-04-19T09:37:18;9.10;73.70
420;DHT22;42600;54.408;13.016;2023-04-19T09:39:45;9.10;72.20
420;DHT22;42600;54.408;13.016;2023-04-19T09:42:13;9.20;74.60
420;DHT22;42600;54.408;13.016;2023-04-19T09:44:39;9.20;73.20
420;DHT22;42600;54.408;13.016;2023-04-19T09:47:21;9.20;70.60
420;DHT22;42600;54.408;13.016;2023-04-19T09:50:03;9.20;70.90
420;DHT22;42600;54.408;13.016;2023-04-19T09:52:31;9.10;70.20
420;DHT22;42600;54.408;13.016;2023-04-19T09:55:00;9.20;73.30
420;DHT22;42600;54.408;13.016;2023-04-19T09:57:29;9.20;72.10
420;DHT22;42600;54.408;13.016;2023-04-19T09:59:55;9.20;73.30
420;DHT22;42600;54.408;13.016;2023-04-19T10:02:25;9.30;71.50
420;DHT22;42600;54.408;13.016;2023-04-19T10:04:56;9.30;69.60
420;DHT22;42600;54.408;13.016;2023-04-19T10:07:23;9.60;71.00
420;DHT22;42600;54.408;13.016;2023-04-19T10:09:53;9.60;68.80
420;DHT22;42600;54.408;13.016;2023-04-19T10:12:22;9.70;68.20
420;DHT22;42600;54.408;13.016;2023-04-19T10:14:52;9.60;68.50
420;DHT22;42600;54.408;13.016;2023-04-19T10:17:19;9.70;68.60
420;DHT22;42600;54.408;13.016;2023-04-19T10:19:47;9.80;68.30
420;DHT22;42600;54.408;13.016;2023-04-19T10:22:15;9.60;67.00
420;DHT22;42600;54.408;13.016;2023-04-19T10:25:07;9.50;66.90
420;DHT22;42600;54.408;13.016;2023-04-19T10:27:34;9.40;65.00
420;DHT22;42600;54.408;13.016;2023-04-19T10:30:03;9.30;67.10
420;DHT22;42600;54.408;13.016;2023-04-19T10:32:37;9.30;66.10
420;DHT22;42600;54.408;13.016;2023-04-19T10:35:08;9.30;67.30
420;DHT22;42600;54.408;13.016;2023-04-19T10:37:39;9.20;65.70
420;DHT22;42600;54.408;13.016;2023-04-19T10:40:07;9.30;68.20
420;DHT22;42600;54.408;13.016;2023-04-19T10:45:35;9.30;66.70
420;DHT22;42600;54.408;13.016;2023-04-19T10:48:03;9.40;64.50
420;DHT22;42600;54.408;13.016;2023-04-19T10:50:29;9.60;68.00
420;DHT22;42600;54.408;13.016;2023-04-19T10:56:59;9.50;66.60
420;DHT22;42600;54.408;13.016;2023-04-19T10:59:28;9.50;65.10
420;DHT22;42600;54.408;13.016;2023-04-19T11:01:57;9.50;65.80
420;DHT22;42600;54.408;13.016;2023-04-19T11:04:57;9.50;63.90
420;DHT22;42600;54.408;13.016;2023-04-19T11:07:24;9.70;64.20
420;DHT22;42600;54.408;13.016;2023-04-19T11:09:51;9.80;62.80
420;DHT22;42600;54.408;13.016;2023-04-19T11:12:19;9.70;61.50
420;DHT22;42600;54.408;13.016;2023-04-19T11:14:47;9.70;63.00
420;DHT22;42600;54.408;13.016;2023-04-19T11:17:17;9.70;63.90
420;DHT22;42600;54.408;13.016;2023-04-19T11:19:52;9.70;65.70
420;DHT22;42600;54.408;13.016;2023-04-19T11:22:23;9.70;63.80
420;DHT22;42600;54.408;13.016;2023-04-19T11:24:50;9.90;65.20
420;DHT22;42600;54.408;13.016;2023-04-19T11:27:17;10.00;64.20
420;DHT22;42600;54.408;13.016;2023-04-19T11:29:43;10.10;65.60
420;DHT22;42600;54.408;13.016;2023-04-19T11:32:10;10.20;62.50
420;DHT22;42600;54.408;13.016;2023-04-19T11:34:39;10.10;64.00
420;DHT22;42600;54.408;13.016;2023-04-19T11:37:07;10.10;62.70
420;DHT22;42600;54.408;13.016;2023-04-19T11:39:33;10.10;63.40
420;DHT22;42600;54.408;13.016;2023-04-19T11:42:16;10.20;64.60
420;DHT22;42600;54.408;13.016;2023-04-19T11:44:47;10.20;66.10
420;DHT22;42600;54.408;13.016;2023-04-19T11:47:14;10.10;63.30
420;DHT22;42600;54.408;13.016;2023-04-19T11:49:42;10.10;63.80
420;DHT22;42600;54.408;13.016;2023-04-19T11:52:09;10.10;64.00
420;DHT22;42600;54.408;13.016;2023-04-19T11:54:35;10.20;63.60
420;DHT22;42600;54.408;13.016;2023-04-19T11:57:03;10.30;66.90
420;DHT22;42600;54.408;13.016;2023-04-19T11:59:30;10.40;65.10
420;DHT22;42600;54.408;13.016;2023-04-19T12:02:07;10.30;65.80
420;DHT22;42600;54.408;13.016;2023-04-19T12:04:34;10.40;63.80
420;DHT22;42600;54.408;13.016;2023-04-19T12:07:04;10.10;63.60
420;DHT22;42600;54.408;13.016;2023-04-19T12:09:32;10.00;65.40
420;DHT22;42600;54.408;13.016;2023-04-19T12:11:59;10.00;65.80
420;DHT22;42600;54.408;13.016;2023-04-19T12:14:26;9.90;64.60
420;DHT22;42600;54.408;13.016;2023-04-19T12:17:07;9.70;62.00
420;DHT22;42600;54.408;13.016;2023-04-19T12:19:35;9.80;68.50
420;DHT22;42600;54.408;13.016;2023-04-19T12:22:12;9.70;64.90
420;DHT22;42600;54.408;13.016;2023-04-19T12:24:39;9.60;64.10
420;DHT22;42600;54.408;13.016;2023-04-19T12:27:07;9.70;66.30
420;DHT22;42600;54.408;13.016;2023-04-19T12:29:34;9.70;68.40
420;DHT22;42600;54.408;13.016;2023-04-19T12:32:01;9.70;64.00
420;DHT22;42600;54.408;13.016;2023-04-19T12:34:28;9.80;67.50
420;DHT22;42600;54.408;13.016;2023-04-19T12:36:55;9.70;64.60
420;DHT22;42600;54.408;13.016;2023-04-19T12:39:23;9.70;63.90
420;DHT22;42600;54.408;13.016;2023-04-19T12:41:50;9.70;64.20
420;DHT22;42600;54.408;13.016;2023-04-19T12:44:16;9.80;64.60
420;DHT22;42600;54.408;13.016;2023-04-19T12:46:43;9.90;63.60
420;DHT22;42600;54.408;13.016;2023-04-19T12:49:09;9.90;63.00
420;DHT22;42600;54.408;13.016;2023-04-19T12:51:36;9.90;65.10
420;DHT22;42600;54.408;13.016;2023-04-19T12:54:03;9.90;62.40
420;DHT22;42600;54.408;13.016;2023-04-19T12:56:33;9.90;64.20
420;DHT22;42600;54.408;13.016;2023-04-19T12:59:00;9.90;63.60
420;DHT22;42600;54.408;13.016;2023-04-19T13:01:26;9.90;62.90
420;DHT22;42600;54.408;13.016;2023-04-19T13:03:53;10.00;63.20
420;DHT22;42600;54.408;13.016;2023-04-19T13:06:19;10.20;62.30
420;DHT22;42600;54.408;13.016;2023-04-19T13:08:46;10.20;62.80
420;DHT22;42600;54.408;13.016;2023-04-19T13:11:12;10.10;61.50
420;DHT22;42600;54.408;13.016;2023-04-19T13:13:40;10.10;62.70
420;DHT22;42600;54.408;13.016;2023-04-19T13:16:07;10.10;62.80
420;DHT22;42600;54.408;13.016;2023-04-19T13:18:34;10.00;61.10
420;DHT22;42600;54.408;13.016;2023-04-19T13:21:00;10.00;61.70
420;DHT22;42600;54.408;13.016;2023-04-19T13:23:28;10.00;60.80
420;DHT22;42600;54.408;13.016;2023-04-19T13:25:54;10.10;61.90
420;DHT22;42600;54.408;13.016;2023-04-19T13:28:21;10.10;62.50
420;DHT22;42600;54.408;13.016;2023-04-19T13:30:49;10.00;62.50
420;DHT22;42600;54.408;13.016;2023-04-19T13:33:16;9.90;63.20
420;DHT22;42600;54.408;13.016;2023-04-19T13:35:42;9.90;63.50
420;DHT22;42600;54.408;13.016;2023-04-19T13:38:09;10.00;61.80
420;DHT22;42600;54.408;13.016;2023-04-19T13:40:36;9.90;61.60
420;DHT22;42600;54.408;13.016;2023-04-19T13:43:02;10.00;65.90
420;DHT22;42600;54.408;13.016;2023-04-19T13:45:29;9.90;62.30
420;DHT22;42600;54.408;13.016;2023-04-19T13:47:57;9.90;64.00
420;DHT22;42600;54.408;13.016;2023-04-19T13:50:23;9.80;64.20
420;DHT22;42600;54.408;13.016;2023-04-19T13:52:50;9.90;65.00
420;DHT22;42600;54.408;13.016;2023-04-19T13:55:17;10.00;64.30
420;DHT22;42600;54.408;13.016;2023-04-19T13:57:43;10.10;64.50
420;DHT22;42600;54.408;13.016;2023-04-19T14:00:11;10.30;65.00
420;DHT22;42600;54.408;13.016;2023-04-19T14:02:38;10.40;64.90
420;DHT22;42600;54.408;13.016;2023-04-19T14:05:07;10.20;62.70
420;DHT22;42600;54.408;13.016;2023-04-19T14:07:33;10.10;61.90
420;DHT22;42600;54.408;13.016;2023-04-19T14:10:00;10.10;66.20
420;DHT22;42600;54.408;13.016;2023-04-19T14:12:27;10.00;63.60
420;DHT22;42600;54.408;13.016;2023-04-19T14:14:54;9.90;63.30
420;DHT22;42600;54.408;13.016;2023-04-19T14:17:20;9.80;63.20
420;DHT22;42600;54.408;13.016;2023-04-19T14:19:47;9.80;64.60
420;DHT22;42600;54.408;13.016;2023-04-19T14:22:16;9.70;66.30
420;DHT22;42600;54.408;13.016;2023-04-19T14:24:43;9.70;65.10
420;DHT22;42600;54.408;13.016;2023-04-19T14:27:10;9.60;66.80
420;DHT22;42600;54.408;13.016;2023-04-19T14:29:37;9.60;64.60
420;DHT22;42600;54.408;13.016;2023-04-19T14:32:04;9.60;66.70
420;DHT22;42600;54.408;13.016;2023-04-19T14:34:30;9.50;68.40
420;DHT22;42600;54.408;13.016;2023-04-19T14:36:57;9.50;64.60
420;DHT22;42600;54.408;13.016;2023-04-19T14:39:25;9.50;67.50
420;DHT22;42600;54.408;13.016;2023-04-19T14:41:51;9.50;66.50
420;DHT22;42600;54.408;13.016;2023-04-19T14:44:18;9.40;64.70
420;DHT22;42600;54.408;13.016;2023-04-19T14:46:45;9.40;66.70
420;DHT22;42600;54.408;13.016;2023-04-19T14:49:11;9.40;65.70
420;DHT22;42600;54.408;13.016;2023-04-19T14:51:38;9.40;66.50
420;DHT22;42600;54.408;13.016;2023-04-19T14:54:04;9.40;69.40
420;DHT22;42600;54.408;13.016;2023-04-19T14:56:32;9.40;68.50
420;DHT22;42600;54.408;13.016;2023-04-19T14:58:59;9.40;66.50
420;DHT22;42600;54.408;13.016;2023-04-19T15:01:25;9.40;67.50
420;DHT22;42600;54.408;13.016;2023-04-19T15:03:52;9.40;66.30
420;DHT22;42600;54.408;13.016;2023-04-19T15:06:19;9.40;68.40
420;DHT22;42600;54.408;13.016;2023-04-19T15:08:45;9.40;67.70
420;DHT22;42600;54.408;13.016;2023-04-19T15:11:12;9.40;65.40
420;DHT22;42600;54.408;13.016;2023-04-19T15:13:40;9.40;66.60
420;DHT22;42600;54.408;13.016;2023-04-19T15:16:07;9.40;67.80
420;DHT22;42600;54.408;13.016;2023-04-19T15:18:37;9.30;68.80
420;DHT22;42600;54.408;13.016;2023-04-19T15:21:05;9.30;69.40
420;DHT22;42600;54.408;13.016;2023-04-19T15:23:31;9.30;68.80
420;DHT22;42600;54.408;13.016;2023-04-19T15:25:58;9.30;68.30
420;DHT22;42600;54.408;13.016;2023-04-19T15:28:25;9.30;70.90
420;DHT22;42600;54.408;13.016;2023-04-19T15:30:58;9.30;70.10
420;DHT22;42600;54.408;13.016;2023-04-19T15:33:26;9.20;69.20
420;DHT22;42600;54.408;13.016;2023-04-19T15:35:53;9.20;70.30
420;DHT22;42600;54.408;13.016;2023-04-19T15:38:21;9.20;70.50
420;DHT22;42600;54.408;13.016;2023-04-19T15:40:47;9.20;68.50
420;DHT22;42600;54.408;13.016;2023-04-19T15:43:14;9.20;70.30
420;DHT22;42600;54.408;13.016;2023-04-19T15:45:41;9.20;70.60
420;DHT22;42600;54.408;13.016;2023-04-19T15:48:09;9.20;71.10
420;DHT22;42600;54.408;13.016;2023-04-19T15:50:36;9.20;70.50
420;DHT22;42600;54.408;13.016;2023-04-19T15:53:05;9.10;71.50
420;DHT22;42600;54.408;13.016;2023-04-19T15:55:32;9.10;71.10
420;DHT22;42600;54.408;13.016;2023-04-19T15:57:59;9.10;71.30
420;DHT22;42600;54.408;13.016;2023-04-19T16:00:26;9.10;71.50
420;DHT22;42600;54.408;13.016;2023-04-19T16:02:52;9.10;72.50
420;DHT22;42600;54.408;13.016;2023-04-19T16:05:20;9.00;72.90
420;DHT22;42600;54.408;13.016;2023-04-19T16:07:49;9.00;72.30